createdAt,value
2023-01-22T00:01:12.730Z,17.90
2023-01-22T00:03:41.234Z,17.47
2023-01-22T00:06:09.229Z,16.90
2023-01-22T00:08:36.929Z,16.30
2023-01-22T00:11:04.931Z,16.77
2023-01-22T00:13:32.145Z,17.60
2023-01-22T00:16:00.264Z,17.73
2023-01-22T00:18:27.378Z,16.90
2023-01-22T00:20:55.487Z,16.10
2023-01-22T00:23:23.623Z,17.73
2023-01-22T00:26:00.288Z,17.73
2023-01-22T00:28:27.075Z,16.57
2023-01-22T00:31:06.660Z,17.23
2023-01-22T00:33:34.491Z,17.30
2023-01-22T00:36:06.994Z,16.80
2023-01-22T00:38:34.170Z,19.17
2023-01-22T00:41:06.407Z,17.27
2023-01-22T00:43:38.605Z,18.10
2023-01-22T00:46:08.250Z,17.80
2023-01-22T00:48:36.216Z,17.17
2023-01-22T00:51:03.135Z,18.70
2023-01-22T00:53:30.079Z,18.03
2023-01-22T00:56:00.179Z,16.83
2023-01-22T00:58:28.111Z,17.70
2023-01-22T01:00:55.690Z,17.57
2023-01-22T01:03:30.334Z,16.53
2023-01-22T01:06:05.943Z,15.37
2023-01-22T01:08:36.896Z,17.03
2023-01-22T01:11:11.749Z,18.07
2023-01-22T01:13:42.702Z,16.87
2023-01-22T01:16:18.536Z,18.33
2023-01-22T01:18:45.729Z,17.47
2023-01-22T01:21:13.510Z,15.27
2023-01-22T01:23:40.669Z,16.03
2023-01-22T01:26:11.122Z,14.87
2023-01-22T01:28:39.206Z,15.40
2023-01-22T01:31:08.517Z,16.33
2023-01-22T01:33:35.267Z,14.53
2023-01-22T01:36:06.451Z,16.10
2023-01-22T01:38:34.123Z,15.63
2023-01-22T01:41:01.406Z,16.03
2023-01-22T01:43:28.536Z,15.40
2023-01-22T01:45:58.040Z,15.00
2023-01-22T01:48:32.608Z,14.97
2023-01-22T01:51:14.538Z,15.13
2023-01-22T01:53:45.598Z,15.57
2023-01-22T01:56:26.286Z,15.57
2023-01-22T01:59:02.480Z,17.43
2023-01-22T02:01:30.320Z,17.63
2023-01-22T02:03:58.358Z,16.37
2023-01-22T02:06:25.307Z,15.93
2023-01-22T02:08:53.736Z,16.07
2023-01-22T02:11:22.602Z,16.07
2023-01-22T02:14:10.099Z,14.47
2023-01-22T02:16:36.979Z,15.77
2023-01-22T02:19:04.411Z,14.70
2023-01-22T02:21:36.995Z,16.13
2023-01-22T02:24:14.865Z,14.87
2023-01-22T02:26:44.956Z,14.90
2023-01-22T02:29:14.123Z,15.77
2023-01-22T02:31:42.514Z,15.50
2023-01-22T02:34:10.687Z,14.93
2023-01-22T02:36:39.665Z,15.23
2023-01-22T02:39:06.982Z,15.23
2023-01-22T02:41:33.959Z,15.60
2023-01-22T02:44:00.746Z,14.67
2023-01-22T02:46:27.673Z,15.60
2023-01-22T02:48:54.431Z,14.40
2023-01-22T02:51:21.732Z,15.37
2023-01-22T02:53:48.544Z,16.03
2023-01-22T02:56:15.285Z,15.30
2023-01-22T02:58:42.005Z,13.50
2023-01-22T03:01:19.138Z,15.70
2023-01-22T03:03:53.269Z,14.57
2023-01-22T03:06:22.815Z,14.17
2023-01-22T03:08:55.682Z,16.30
2023-01-22T03:11:23.543Z,15.00
2023-01-22T03:14:09.438Z,15.20
2023-01-22T03:16:55.324Z,15.20
2023-01-22T03:19:42.957Z,17.17
2023-01-22T03:22:10.425Z,15.30
2023-01-22T03:24:37.347Z,15.57
2023-01-22T03:27:05.142Z,15.97
2023-01-22T03:29:31.847Z,15.60
2023-01-22T03:31:59.180Z,15.07
2023-01-22T03:34:26.636Z,15.47
2023-01-22T03:36:53.421Z,16.43
2023-01-22T03:39:20.204Z,16.97
2023-01-22T03:41:46.922Z,16.03
2023-01-22T03:44:14.224Z,15.17
2023-01-22T03:46:41.220Z,16.30
2023-01-22T03:49:10.008Z,16.63
2023-01-22T03:51:37.219Z,17.27
2023-01-22T03:54:04.825Z,16.83
2023-01-22T03:56:32.408Z,16.40
2023-01-22T03:58:59.191Z,15.63
2023-01-22T04:01:28.568Z,16.60
2023-01-22T04:03:55.690Z,16.13
2023-01-22T04:06:23.419Z,15.13
2023-01-22T04:08:54.395Z,16.07
2023-01-22T04:11:22.790Z,16.47
2023-01-22T04:13:49.959Z,17.30
2023-01-22T04:16:17.205Z,16.23
2023-01-22T04:18:43.991Z,16.67
2023-01-22T04:21:10.735Z,16.77
2023-01-22T04:23:37.446Z,18.17
2023-01-22T04:26:04.519Z,17.43
2023-01-22T04:28:31.272Z,18.23
2023-01-22T04:30:58.271Z,16.27
2023-01-22T04:33:25.020Z,17.30
2023-01-22T04:35:54.817Z,17.77
2023-01-22T04:38:21.662Z,18.03
2023-01-22T04:40:48.594Z,16.13
2023-01-22T04:43:15.440Z,17.13
2023-01-22T04:45:42.183Z,16.77
2023-01-22T04:48:09.355Z,16.43
2023-01-22T04:50:36.087Z,16.97
2023-01-22T04:53:04.067Z,17.40
2023-01-22T04:55:31.119Z,17.27
2023-01-22T04:58:00.221Z,17.10
2023-01-22T05:00:28.704Z,16.40
2023-01-22T05:03:01.271Z,16.73
2023-01-22T05:05:29.834Z,17.17
2023-01-22T05:07:58.456Z,14.97
2023-01-22T05:10:25.962Z,16.00
2023-01-22T05:12:52.773Z,16.43
2023-01-22T05:15:24.451Z,16.70
2023-01-22T05:17:53.263Z,15.10
2023-01-22T05:20:21.475Z,16.33
2023-01-22T05:22:48.811Z,16.03
2023-01-22T05:25:15.665Z,16.33
2023-01-22T05:27:42.433Z,14.83
2023-01-22T05:30:11.676Z,15.67
2023-01-22T05:32:38.632Z,15.80
2023-01-22T05:35:06.367Z,14.77
2023-01-22T05:37:33.113Z,14.87
2023-01-22T05:39:59.889Z,14.07
2023-01-22T05:42:27.143Z,14.50
2023-01-22T05:44:53.884Z,15.27
2023-01-22T05:47:20.736Z,15.77
2023-01-22T05:49:47.422Z,14.93
2023-01-22T05:52:14.218Z,14.90
2023-01-22T05:54:40.967Z,15.27
2023-01-22T05:57:07.949Z,15.30
2023-01-22T05:59:34.964Z,16.00
2023-01-22T06:02:02.133Z,14.57
2023-01-22T06:04:29.808Z,16.17
2023-01-22T06:06:56.683Z,14.80
2023-01-22T06:09:23.789Z,15.77
2023-01-22T06:11:51.028Z,16.73
2023-01-22T06:14:17.889Z,15.20
2023-01-22T06:16:44.829Z,16.13
2023-01-22T06:19:12.521Z,15.07
2023-01-22T06:21:39.634Z,14.17
2023-01-22T06:24:06.941Z,15.73
2023-01-22T06:26:33.674Z,15.40
2023-01-22T06:29:00.613Z,15.10
2023-01-22T06:31:27.464Z,16.27
2023-01-22T06:33:54.868Z,15.63
2023-01-22T06:36:21.688Z,15.73
2023-01-22T06:38:48.638Z,15.40
2023-01-22T06:41:15.464Z,15.47
2023-01-22T06:43:42.193Z,14.77
2023-01-22T06:46:09.015Z,14.37
2023-01-22T06:48:35.791Z,15.00
2023-01-22T06:51:02.591Z,15.90
2023-01-22T06:53:29.405Z,15.47
2023-01-22T06:55:59.823Z,14.80
2023-01-22T06:58:26.823Z,15.57
2023-01-22T07:00:53.614Z,14.97
2023-01-22T07:03:20.689Z,15.73
2023-01-22T07:05:56.317Z,15.03
2023-01-22T07:08:23.093Z,15.33
2023-01-22T07:10:49.785Z,15.67
2023-01-22T07:13:16.554Z,14.83
2023-01-22T07:15:43.539Z,14.60
2023-01-22T07:18:11.324Z,15.17
2023-01-22T07:20:38.033Z,14.70
2023-01-22T07:23:04.922Z,14.37
2023-01-22T07:25:31.660Z,16.13
2023-01-22T07:28:02.874Z,16.10
2023-01-22T07:30:30.727Z,15.00
2023-01-22T07:33:02.555Z,16.17
2023-01-22T07:35:30.151Z,15.10
2023-01-22T07:37:59.827Z,14.60
2023-01-22T07:40:27.361Z,15.37
2023-01-22T07:42:55.600Z,14.43
2023-01-22T07:45:24.608Z,13.70
2023-01-22T07:48:00.568Z,14.63
2023-01-22T07:50:31.001Z,13.90
2023-01-22T07:53:02.397Z,13.53
2023-01-22T07:55:31.202Z,15.27
2023-01-22T07:58:04.829Z,13.83
2023-01-22T08:00:35.179Z,14.00
2023-01-22T08:03:05.101Z,15.17
2023-01-22T08:05:32.547Z,14.20
2023-01-22T08:07:59.563Z,13.17
2023-01-22T08:10:26.691Z,14.13
2023-01-22T08:12:53.456Z,12.47
2023-01-22T08:15:20.463Z,13.40
2023-01-22T08:17:52.721Z,12.97
2023-01-22T08:20:19.832Z,12.83
2023-01-22T08:22:47.058Z,13.90
2023-01-22T08:25:14.151Z,13.80
2023-01-22T08:27:40.951Z,13.77
2023-01-22T08:30:11.183Z,13.00
2023-01-22T08:32:41.189Z,13.57
2023-01-22T08:35:09.113Z,13.63
2023-01-22T08:37:35.883Z,13.20
2023-01-22T08:40:03.241Z,13.10
2023-01-22T08:42:30.075Z,12.77
2023-01-22T08:44:56.874Z,11.90
2023-01-22T08:47:24.370Z,13.03
2023-01-22T08:49:51.191Z,11.53
2023-01-22T08:52:17.947Z,13.43
2023-01-22T08:54:44.683Z,12.17
2023-01-22T08:57:11.448Z,12.53
2023-01-22T08:59:38.157Z,12.57
2023-01-22T09:02:05.216Z,12.70
2023-01-22T09:04:32.085Z,12.87
2023-01-22T09:06:58.822Z,13.07
2023-01-22T09:09:25.514Z,13.40
2023-01-22T09:11:52.220Z,14.30
2023-01-22T09:14:18.984Z,12.77
2023-01-22T09:16:45.737Z,13.90
2023-01-22T09:19:12.550Z,13.83
2023-01-22T09:21:39.723Z,13.70
2023-01-22T09:24:07.464Z,14.13
2023-01-22T09:26:35.228Z,14.00
2023-01-22T09:29:05.667Z,14.40
2023-01-22T09:31:34.197Z,14.27
2023-01-22T09:34:01.008Z,14.57
2023-01-22T09:36:28.515Z,14.40
2023-01-22T09:38:55.622Z,14.60
2023-01-22T09:41:27.685Z,14.73
2023-01-22T09:44:31.741Z,15.13
2023-01-22T09:47:16.026Z,15.90
2023-01-22T09:50:06.150Z,14.47
2023-01-22T09:52:37.888Z,14.63
2023-01-22T09:55:16.116Z,14.03
2023-01-22T09:57:48.938Z,15.03
2023-01-22T10:00:25.100Z,14.23
2023-01-22T10:03:01.939Z,13.50
2023-01-22T10:05:43.663Z,14.33
2023-01-22T10:08:32.403Z,14.23
2023-01-22T10:11:03.424Z,14.30
2023-01-22T10:13:36.764Z,14.03
2023-01-22T10:16:05.473Z,14.40
2023-01-22T10:18:48.198Z,14.53
2023-01-22T10:21:28.962Z,13.63
2023-01-22T10:23:58.103Z,13.87
2023-01-22T10:26:48.718Z,14.67
2023-01-22T10:29:26.015Z,15.87
2023-01-22T10:31:57.221Z,15.77
2023-01-22T10:34:36.115Z,14.47
2023-01-22T10:37:16.779Z,14.93
2023-01-22T10:39:58.965Z,15.80
2023-01-22T10:42:29.592Z,14.97
2023-01-22T10:45:11.026Z,15.10
2023-01-22T10:47:37.727Z,14.67
2023-01-22T10:50:23.070Z,15.73
2023-01-22T10:52:54.748Z,15.80
2023-01-22T10:55:27.426Z,15.57
2023-01-22T10:58:14.058Z,16.10
2023-01-22T11:00:51.882Z,16.03
2023-01-22T11:03:30.536Z,17.03
2023-01-22T11:06:04.728Z,16.80
2023-01-22T11:08:53.754Z,16.73
2023-01-22T11:11:31.796Z,16.40
2023-01-22T11:14:10.225Z,17.03
2023-01-22T11:16:40.736Z,15.23
2023-01-22T11:19:16.777Z,15.67
2023-01-22T11:21:51.986Z,16.10
2023-01-22T11:24:31.947Z,17.87
2023-01-22T11:27:14.410Z,16.73
2023-01-22T11:30:17.696Z,17.60
2023-01-22T11:33:20.507Z,16.90
2023-01-22T11:36:14.647Z,17.97
2023-01-22T11:38:51.287Z,17.20
2023-01-22T11:41:48.454Z,16.73
2023-01-22T11:44:42.942Z,17.20
2023-01-22T11:47:42.773Z,16.57
2023-01-22T11:50:30.262Z,18.43
2023-01-22T11:53:25.807Z,18.27
2023-01-22T11:56:04.757Z,17.27
2023-01-22T11:58:59.832Z,17.20
2023-01-22T12:01:50.538Z,16.87
2023-01-22T12:05:07.175Z,17.93
2023-01-22T12:08:14.696Z,17.27
2023-01-22T12:10:56.142Z,16.63
2023-01-22T12:13:31.479Z,16.00
2023-01-22T12:16:15.059Z,17.30
2023-01-22T12:19:25.741Z,16.47
2023-01-22T12:22:05.787Z,16.30
2023-01-22T12:24:54.775Z,17.23
2023-01-22T12:27:38.933Z,16.93
2023-01-22T12:30:24.549Z,17.63
2023-01-22T12:33:02.663Z,17.40
2023-01-22T12:35:32.133Z,16.47
2023-01-22T12:38:14.951Z,16.67
2023-01-22T12:41:15.075Z,16.03
2023-01-22T12:44:14.213Z,17.03
2023-01-22T12:47:09.810Z,16.40
2023-01-22T12:49:56.907Z,15.57
2023-01-22T12:52:35.833Z,16.17
2023-01-22T12:55:31.662Z,15.50
2023-01-22T12:57:59.380Z,16.10
2023-01-22T13:00:38.934Z,17.97
2023-01-22T13:03:32.861Z,16.93
2023-01-22T13:06:03.515Z,17.67
2023-01-22T13:08:41.564Z,17.37
2023-01-22T13:11:12.938Z,19.03
2023-01-22T13:14:14.736Z,16.20
2023-01-22T13:16:56.134Z,21.80
2023-01-22T13:19:28.042Z,20.00
2023-01-22T13:22:00.014Z,17.17
2023-01-22T13:24:26.795Z,17.27
2023-01-22T13:27:02.383Z,16.50
2023-01-22T13:29:33.993Z,16.03
2023-01-22T13:32:16.512Z,17.03
2023-01-22T13:34:43.252Z,16.93
2023-01-22T13:37:25.322Z,16.70
2023-01-22T13:39:52.409Z,16.70
2023-01-22T13:42:19.443Z,16.00
2023-01-22T13:44:51.770Z,14.47
2023-01-22T13:47:35.064Z,16.40
2023-01-22T13:50:02.435Z,15.70
2023-01-22T13:52:29.590Z,16.00
2023-01-22T13:55:16.483Z,15.60
2023-01-22T13:57:58.354Z,16.43
2023-01-22T14:00:35.116Z,15.10
2023-01-22T14:03:02.937Z,16.13
2023-01-22T14:05:34.920Z,15.70
2023-01-22T14:08:11.652Z,15.73
2023-01-22T14:10:41.946Z,17.17
2023-01-22T14:13:15.423Z,17.43
2023-01-22T14:15:42.422Z,16.80
2023-01-22T14:18:14.573Z,15.57
2023-01-22T14:20:44.873Z,15.30
2023-01-22T14:23:12.831Z,16.13
2023-01-22T14:25:47.581Z,15.40
2023-01-22T14:28:15.461Z,15.57
2023-01-22T14:30:42.665Z,14.90
2023-01-22T14:33:19.661Z,16.93
2023-01-22T14:35:46.458Z,15.03
2023-01-22T14:38:13.254Z,14.60
2023-01-22T14:40:41.217Z,13.57
2023-01-22T14:43:08.361Z,15.53
2023-01-22T14:45:35.127Z,15.87
2023-01-22T14:48:03.957Z,14.27
2023-01-22T14:50:30.736Z,14.33
2023-01-22T14:52:57.546Z,15.07
2023-01-22T14:55:24.393Z,14.17
2023-01-22T14:57:51.253Z,15.43
2023-01-22T15:00:19.928Z,15.83
2023-01-22T15:02:47.753Z,15.83
2023-01-22T15:05:14.812Z,21.30
2023-01-22T15:07:44.212Z,17.07
2023-01-22T15:10:12.055Z,17.20
2023-01-22T15:12:38.814Z,14.73
2023-01-22T15:15:08.821Z,14.17
2023-01-22T15:17:36.299Z,15.13
2023-01-22T15:20:04.614Z,18.30
2023-01-22T15:22:31.487Z,16.17
2023-01-22T15:24:58.351Z,17.00
2023-01-22T15:27:25.168Z,15.43
2023-01-22T15:29:52.037Z,16.30
2023-01-22T15:32:18.868Z,15.97
2023-01-22T15:34:45.563Z,16.53
2023-01-22T15:37:14.808Z,17.87
2023-01-22T15:39:41.942Z,15.90
2023-01-22T15:42:09.362Z,16.80
2023-01-22T15:44:37.443Z,18.13
2023-01-22T15:47:04.594Z,20.23
2023-01-22T15:49:31.311Z,19.87
2023-01-22T15:51:58.117Z,17.80
2023-01-22T15:54:26.750Z,17.50
2023-01-22T15:56:54.078Z,17.93
2023-01-22T15:59:20.826Z,18.70
2023-01-22T16:01:47.903Z,18.40
2023-01-22T16:04:14.670Z,15.93
2023-01-22T16:06:41.415Z,16.43
2023-01-22T16:09:08.376Z,16.27
2023-01-22T16:11:35.799Z,16.53
2023-01-22T16:14:02.874Z,17.13
2023-01-22T16:16:36.379Z,17.30
2023-01-22T16:19:06.788Z,17.27
2023-01-22T16:21:34.005Z,17.63
2023-01-22T16:24:02.865Z,16.83
2023-01-22T16:26:33.747Z,18.00
2023-01-22T16:29:04.304Z,15.77
2023-01-22T16:31:34.446Z,18.37
2023-01-22T16:34:16.243Z,17.20
2023-01-22T16:36:44.188Z,21.77
2023-01-22T16:39:19.111Z,19.03
2023-01-22T16:41:51.021Z,18.87
2023-01-22T16:44:24.423Z,18.13
2023-01-22T16:46:54.140Z,18.60
2023-01-22T16:49:24.727Z,17.47
2023-01-22T16:51:55.447Z,18.20
2023-01-22T16:54:34.459Z,19.53
2023-01-22T16:57:07.102Z,18.10
2023-01-22T16:59:36.313Z,20.10
2023-01-22T17:02:07.589Z,18.17
2023-01-22T17:04:34.377Z,19.43
2023-01-22T17:07:01.211Z,19.23
2023-01-22T17:09:32.882Z,18.27
2023-01-22T17:12:04.592Z,22.37
2023-01-22T17:14:35.926Z,21.03
2023-01-22T17:17:05.383Z,20.47
2023-01-22T17:19:33.425Z,19.40
2023-01-22T17:22:01.569Z,18.57
2023-01-22T17:24:30.820Z,20.33
2023-01-22T17:26:58.198Z,19.70
2023-01-22T17:29:25.981Z,17.37
2023-01-22T17:31:52.860Z,19.37
2023-01-22T17:34:19.667Z,19.17
2023-01-22T17:36:46.465Z,18.97
2023-01-22T17:39:18.243Z,19.90
2023-01-22T17:41:45.050Z,19.00
2023-01-22T17:44:12.881Z,19.50
2023-01-22T17:46:39.953Z,19.70
2023-01-22T17:49:07.261Z,19.03
2023-01-22T17:51:35.095Z,20.53
2023-01-22T17:54:04.377Z,20.80
2023-01-22T17:56:35.264Z,19.43
2023-01-22T17:59:06.712Z,20.77
2023-01-22T18:01:36.649Z,23.30
2023-01-22T18:04:10.675Z,20.57
2023-01-22T18:06:39.895Z,21.30
2023-01-22T18:09:08.421Z,21.30
2023-01-22T18:11:37.391Z,20.30
2023-01-22T18:14:07.991Z,21.30
2023-01-22T18:16:38.843Z,20.43
2023-01-22T18:19:07.289Z,20.93
2023-01-22T18:21:36.918Z,21.80
2023-01-22T18:24:06.501Z,21.00
2023-01-22T18:26:34.405Z,21.87
2023-01-22T18:29:02.085Z,21.97
2023-01-22T18:31:30.060Z,21.87
2023-01-22T18:34:01.792Z,20.43
2023-01-22T18:36:33.408Z,22.60
2023-01-22T18:39:03.742Z,20.33
2023-01-22T18:41:30.740Z,21.67
2023-01-22T18:44:00.590Z,21.90
2023-01-22T18:46:33.148Z,20.57
2023-01-22T18:49:04.024Z,20.47
2023-01-22T18:51:33.236Z,21.43
2023-01-22T18:54:02.888Z,22.23
2023-01-22T18:56:29.604Z,23.30
2023-01-22T18:58:57.997Z,24.10
2023-01-22T19:01:29.181Z,22.00
2023-01-22T19:04:03.071Z,22.03
2023-01-22T19:06:38.408Z,20.90
2023-01-22T19:09:14.087Z,22.50
2023-01-22T19:11:43.525Z,22.03
2023-01-22T19:14:16.084Z,24.10
2023-01-22T19:16:48.482Z,23.13
2023-01-22T19:19:16.234Z,23.47
2023-01-22T19:21:47.551Z,23.60
2023-01-22T19:24:22.176Z,22.70
2023-01-22T19:26:51.393Z,24.03
2023-01-22T19:29:18.379Z,23.53
2023-01-22T19:31:51.933Z,22.07
2023-01-22T19:34:25.324Z,21.43
2023-01-22T19:37:00.314Z,23.37
2023-01-22T19:39:27.078Z,22.30
2023-01-22T19:41:54.810Z,22.90
2023-01-22T19:44:21.968Z,23.50
2023-01-22T19:46:48.748Z,21.70
2023-01-22T19:49:15.621Z,22.10
2023-01-22T19:51:42.882Z,22.60
2023-01-22T19:54:10.200Z,21.40
2023-01-22T19:56:39.156Z,22.47
2023-01-22T19:59:14.427Z,23.67
2023-01-22T20:01:45.369Z,23.33
2023-01-22T20:04:24.984Z,23.07
2023-01-22T20:07:05.773Z,24.27
2023-01-22T20:09:34.612Z,22.77
2023-01-22T20:12:01.451Z,24.00
2023-01-22T20:14:35.162Z,24.93
2023-01-22T20:17:03.243Z,23.33
2023-01-22T20:19:31.436Z,24.57
2023-01-22T20:21:59.488Z,22.97
2023-01-22T20:24:28.036Z,24.70
2023-01-22T20:26:56.842Z,24.77
2023-01-22T20:29:23.569Z,23.23
2023-01-22T20:31:52.762Z,24.93
2023-01-22T20:34:19.737Z,24.17
2023-01-22T20:36:47.056Z,22.80
2023-01-22T20:39:16.007Z,24.27
2023-01-22T20:41:43.691Z,23.73
2023-01-22T20:44:12.035Z,24.80
2023-01-22T20:46:41.232Z,24.80
2023-01-22T20:49:08.710Z,24.80
2023-01-22T20:51:36.151Z,24.83
2023-01-22T20:54:03.841Z,22.00
2023-01-22T20:56:33.444Z,23.47
2023-01-22T20:59:19.672Z,22.93
2023-01-22T21:01:46.919Z,25.30
2023-01-22T21:04:14.537Z,23.00
2023-01-22T21:06:42.477Z,24.43
2023-01-22T21:09:10.683Z,23.60
2023-01-22T21:11:40.242Z,23.03
2023-01-22T21:14:08.290Z,22.97
2023-01-22T21:16:39.790Z,23.30
2023-01-22T21:19:17.143Z,23.03
2023-01-22T21:21:44.561Z,22.73
2023-01-22T21:24:11.493Z,23.73
2023-01-22T21:26:39.026Z,22.57
2023-01-22T21:29:16.018Z,23.33
2023-01-22T21:31:44.367Z,23.07
2023-01-22T21:34:11.824Z,23.23
2023-01-22T21:36:43.422Z,23.50
2023-01-22T21:39:14.751Z,25.77
2023-01-22T21:41:43.222Z,24.30
2023-01-22T21:44:37.613Z,24.93
2023-01-22T21:47:05.394Z,24.20
2023-01-22T21:49:34.766Z,25.53
2023-01-22T21:52:05.873Z,26.87
2023-01-22T21:54:43.330Z,26.10
2023-01-22T21:57:16.428Z,23.27
2023-01-22T21:59:45.536Z,26.33
2023-01-22T22:02:16.228Z,25.93
2023-01-22T22:04:43.159Z,22.60
2023-01-22T22:07:10.060Z,26.00
2023-01-22T22:09:36.974Z,25.47
2023-01-22T22:12:05.105Z,25.27
2023-01-22T22:14:32.020Z,25.20
2023-01-22T22:16:59.168Z,23.43
2023-01-22T22:19:26.221Z,25.20
2023-01-22T22:21:52.958Z,25.83
2023-01-22T22:24:20.613Z,25.07
2023-01-22T22:26:47.341Z,24.67
2023-01-22T22:29:14.122Z,25.00
2023-01-22T22:31:40.948Z,24.73
2023-01-22T22:34:08.106Z,26.87
2023-01-22T22:36:35.091Z,26.83
2023-01-22T22:39:03.070Z,24.93
2023-01-22T22:41:33.150Z,25.00
2023-01-22T22:44:00.358Z,26.10
2023-01-22T22:46:34.323Z,24.50
2023-01-22T22:49:03.406Z,23.90
2023-01-22T22:51:37.041Z,25.23
2023-01-22T22:54:08.121Z,24.97
2023-01-22T22:56:35.046Z,25.53
2023-01-22T22:59:02.428Z,26.60
2023-01-22T23:01:33.000Z,25.03
2023-01-22T23:04:01.141Z,23.47
2023-01-22T23:06:33.307Z,23.63
2023-01-22T23:09:00.863Z,24.77
2023-01-22T23:11:33.903Z,22.60
2023-01-22T23:14:02.824Z,22.93
2023-01-22T23:16:34.670Z,21.83
2023-01-22T23:19:06.358Z,22.40
2023-01-22T23:21:35.161Z,22.97
2023-01-22T23:24:02.489Z,22.10
2023-01-22T23:26:30.648Z,24.43
2023-01-22T23:29:02.130Z,22.00
2023-01-22T23:31:32.184Z,23.47
2023-01-22T23:34:01.262Z,22.37
2023-01-22T23:36:28.078Z,22.47
2023-01-22T23:38:55.175Z,20.93
2023-01-22T23:41:23.308Z,21.57
2023-01-22T23:43:50.586Z,21.27
2023-01-22T23:46:24.954Z,22.27
2023-01-22T23:48:54.132Z,21.27
2023-01-22T23:51:21.926Z,21.77
2023-01-22T23:53:51.693Z,18.80
2023-01-22T23:56:25.593Z,20.83
2023-01-22T23:58:56.721Z,21.00
